Terminal Aerodrome Forecast
Issued by NWS

Home | Current Version | Previous Version | Text Only | Print | Product List | Glossary On
Versions: 1 2 3 4 5 6 7 8 9 10 11 12 13 14 15 16 17 18 19 20 21 22
000
FTUS46 KLOX 291517 AAB
TAFSBA
TAF AMD
KSBA 291517Z 2915/3012 13006KT 5SM BR BKN005 OVC010
     FM291700 16006KT P6SM BKN015
     FM292300 25008KT P6SM SCT015
     FM300400 VRB03KT P6SM BKN010
     FM300700 VRB05KT P6SM OVC008=

USA.gov is the U.S. government's official web portal to all federal, state and local government web resources and services.